sensor_id;sensor_type;location;lat;lon;timestamp;P1;durP1;ratioP1;P2;durP2;ratioP2
35540;SDS011;21650;48.840;9.162;2023-01-19T00:00:05;10.13;;;7.03;;
35540;SDS011;21650;48.840;9.162;2023-01-19T00:02:36;10.70;;;7.17;;
35540;SDS011;21650;48.840;9.162;2023-01-19T00:05:06;12.97;;;7.43;;
35540;SDS011;21650;48.840;9.162;2023-01-19T00:07:33;13.60;;;6.77;;
35540;SDS011;21650;48.840;9.162;2023-01-19T00:09:58;10.33;;;7.10;;
35540;SDS011;21650;48.840;9.162;2023-01-19T00:12:24;11.33;;;7.27;;
35540;SDS011;21650;48.840;9.162;2023-01-19T00:14:50;13.83;;;7.00;;
35540;SDS011;21650;48.840;9.162;2023-01-19T00:17:15;13.47;;;7.77;;
35540;SDS011;21650;48.840;9.162;2023-01-19T00:19:41;9.97;;;6.93;;
35540;SDS011;21650;48.840;9.162;2023-01-19T00:22:07;13.47;;;7.73;;
35540;SDS011;21650;48.840;9.162;2023-01-19T00:24:32;14.17;;;7.50;;
35540;SDS011;21650;48.840;9.162;2023-01-19T00:26:58;11.37;;;7.27;;
35540;SDS011;21650;48.840;9.162;2023-01-19T00:29:27;10.90;;;7.40;;
35540;SDS011;21650;48.840;9.162;2023-01-19T00:31:57;12.07;;;7.47;;
35540;SDS011;21650;48.840;9.162;2023-01-19T00:34:26;12.87;;;8.07;;
35540;SDS011;21650;48.840;9.162;2023-01-19T00:36:51;15.70;;;7.43;;
35540;SDS011;21650;48.840;9.162;2023-01-19T00:39:17;12.17;;;7.13;;
35540;SDS011;21650;48.840;9.162;2023-01-19T00:41:42;11.87;;;7.07;;
35540;SDS011;21650;48.840;9.162;2023-01-19T00:44:26;14.90;;;8.30;;
35540;SDS011;21650;48.840;9.162;2023-01-19T00:46:52;19.57;;;7.60;;
35540;SDS011;21650;48.840;9.162;2023-01-19T00:49:18;13.47;;;7.43;;
35540;SDS011;21650;48.840;9.162;2023-01-19T00:51:44;12.53;;;7.70;;
35540;SDS011;21650;48.840;9.162;2023-01-19T00:54:09;15.57;;;8.17;;
35540;SDS011;21650;48.840;9.162;2023-01-19T00:56:35;16.70;;;8.03;;
35540;SDS011;21650;48.840;9.162;2023-01-19T00:59:02;14.53;;;7.67;;
35540;SDS011;21650;48.840;9.162;2023-01-19T01:01:28;13.87;;;7.67;;
35540;SDS011;21650;48.840;9.162;2023-01-19T01:03:54;13.40;;;8.57;;
35540;SDS011;21650;48.840;9.162;2023-01-19T01:06:20;9.67;;;8.00;;
35540;SDS011;21650;48.840;9.162;2023-01-19T01:08:46;12.80;;;7.07;;
35540;SDS011;21650;48.840;9.162;2023-01-19T01:11:12;11.70;;;7.50;;
35540;SDS011;21650;48.840;9.162;2023-01-19T01:13:37;11.20;;;7.57;;
35540;SDS011;21650;48.840;9.162;2023-01-19T01:16:03;10.23;;;7.97;;
35540;SDS011;21650;48.840;9.162;2023-01-19T01:18:29;10.60;;;7.40;;
35540;SDS011;21650;48.840;9.162;2023-01-19T01:21:04;13.30;;;7.77;;
35540;SDS011;21650;48.840;9.162;2023-01-19T01:23:30;14.33;;;8.23;;
35540;SDS011;21650;48.840;9.162;2023-01-19T01:25:56;11.37;;;7.47;;
35540;SDS011;21650;48.840;9.162;2023-01-19T01:28:22;9.63;;;7.37;;
35540;SDS011;21650;48.840;9.162;2023-01-19T01:30:51;15.17;;;8.23;;
35540;SDS011;21650;48.840;9.162;2023-01-19T01:33:18;11.77;;;7.50;;
35540;SDS011;21650;48.840;9.162;2023-01-19T01:35:43;12.03;;;8.50;;
35540;SDS011;21650;48.840;9.162;2023-01-19T01:38:09;12.23;;;8.60;;
35540;SDS011;21650;48.840;9.162;2023-01-19T01:40:37;13.27;;;8.53;;
35540;SDS011;21650;48.840;9.162;2023-01-19T01:43:08;13.33;;;7.90;;
35540;SDS011;21650;48.840;9.162;2023-01-19T01:45:38;12.93;;;8.17;;
35540;SDS011;21650;48.840;9.162;2023-01-19T01:50:40;13.07;;;8.33;;
35540;SDS011;21650;48.840;9.162;2023-01-19T01:53:33;12.97;;;7.47;;
35540;SDS011;21650;48.840;9.162;2023-01-19T01:55:59;15.23;;;9.27;;
35540;SDS011;21650;48.840;9.162;2023-01-19T01:58:28;11.80;;;7.10;;
35540;SDS011;21650;48.840;9.162;2023-01-19T02:00:55;13.70;;;8.40;;
35540;SDS011;21650;48.840;9.162;2023-01-19T02:03:39;13.93;;;8.07;;
35540;SDS011;21650;48.840;9.162;2023-01-19T02:06:05;11.93;;;8.07;;
35540;SDS011;21650;48.840;9.162;2023-01-19T02:11:19;12.50;;;8.57;;
35540;SDS011;21650;48.840;9.162;2023-01-19T02:14:04;19.23;;;8.07;;
35540;SDS011;21650;48.840;9.162;2023-01-19T02:16:30;12.60;;;8.47;;
35540;SDS011;21650;48.840;9.162;2023-01-19T02:18:56;14.23;;;8.17;;
35540;SDS011;21650;48.840;9.162;2023-01-19T02:21:23;11.67;;;7.77;;
35540;SDS011;21650;48.840;9.162;2023-01-19T02:24:10;13.17;;;8.20;;
35540;SDS011;21650;48.840;9.162;2023-01-19T02:26:40;11.33;;;7.93;;
35540;SDS011;21650;48.840;9.162;2023-01-19T02:29:10;14.70;;;8.97;;
35540;SDS011;21650;48.840;9.162;2023-01-19T02:31:38;14.93;;;8.40;;
35540;SDS011;21650;48.840;9.162;2023-01-19T02:34:05;12.33;;;8.20;;
35540;SDS011;21650;48.840;9.162;2023-01-19T02:36:38;15.10;;;8.93;;
35540;SDS011;21650;48.840;9.162;2023-01-19T02:39:17;16.17;;;8.17;;
35540;SDS011;21650;48.840;9.162;2023-01-19T02:41:46;14.57;;;8.60;;
35540;SDS011;21650;48.840;9.162;2023-01-19T02:44:15;15.07;;;8.40;;
35540;SDS011;21650;48.840;9.162;2023-01-19T02:46:42;11.90;;;7.63;;
35540;SDS011;21650;48.840;9.162;2023-01-19T02:49:08;13.03;;;8.03;;
35540;SDS011;21650;48.840;9.162;2023-01-19T02:51:33;13.33;;;8.30;;
35540;SDS011;21650;48.840;9.162;2023-01-19T02:54:01;16.43;;;8.10;;
35540;SDS011;21650;48.840;9.162;2023-01-19T02:56:49;12.13;;;7.60;;
35540;SDS011;21650;48.840;9.162;2023-01-19T03:07:08;13.13;;;7.97;;
35540;SDS011;21650;48.840;9.162;2023-01-19T03:12:37;13.97;;;8.07;;
35540;SDS011;21650;48.840;9.162;2023-01-19T03:17:58;18.57;;;8.40;;
35540;SDS011;21650;48.840;9.162;2023-01-19T03:20:25;16.57;;;8.03;;
35540;SDS011;21650;48.840;9.162;2023-01-19T03:22:54;11.93;;;7.60;;
35540;SDS011;21650;48.840;9.162;2023-01-19T03:25:25;12.87;;;7.97;;
35540;SDS011;21650;48.840;9.162;2023-01-19T03:27:53;12.63;;;7.93;;
35540;SDS011;21650;48.840;9.162;2023-01-19T03:30:23;14.03;;;8.83;;
35540;SDS011;21650;48.840;9.162;2023-01-19T03:32:56;13.30;;;7.87;;
35540;SDS011;21650;48.840;9.162;2023-01-19T03:35:29;14.10;;;8.60;;
35540;SDS011;21650;48.840;9.162;2023-01-19T03:37:58;11.53;;;8.07;;
35540;SDS011;21650;48.840;9.162;2023-01-19T03:40:28;13.50;;;8.43;;
35540;SDS011;21650;48.840;9.162;2023-01-19T03:42:55;13.23;;;8.37;;
35540;SDS011;21650;48.840;9.162;2023-01-19T03:45:23;12.40;;;8.67;;
35540;SDS011;21650;48.840;9.162;2023-01-19T03:47:49;17.57;;;8.07;;
35540;SDS011;21650;48.840;9.162;2023-01-19T03:50:26;16.00;;;8.43;;
35540;SDS011;21650;48.840;9.162;2023-01-19T03:52:59;12.53;;;7.80;;
35540;SDS011;21650;48.840;9.162;2023-01-19T03:55:39;12.97;;;8.37;;
35540;SDS011;21650;48.840;9.162;2023-01-19T03:58:06;14.03;;;8.50;;
35540;SDS011;21650;48.840;9.162;2023-01-19T04:00:32;13.40;;;8.43;;
35540;SDS011;21650;48.840;9.162;2023-01-19T04:03:00;12.73;;;7.63;;
35540;SDS011;21650;48.840;9.162;2023-01-19T04:05:26;15.23;;;8.50;;
35540;SDS011;21650;48.840;9.162;2023-01-19T04:07:51;10.60;;;7.90;;
35540;SDS011;21650;48.840;9.162;2023-01-19T04:10:18;16.80;;;9.37;;
35540;SDS011;21650;48.840;9.162;2023-01-19T04:12:44;12.57;;;8.27;;
35540;SDS011;21650;48.840;9.162;2023-01-19T04:15:09;12.90;;;8.17;;
35540;SDS011;21650;48.840;9.162;2023-01-19T04:17:35;12.10;;;8.40;;
35540;SDS011;21650;48.840;9.162;2023-01-19T04:20:02;12.47;;;8.67;;
35540;SDS011;21650;48.840;9.162;2023-01-19T04:22:28;14.70;;;7.97;;
35540;SDS011;21650;48.840;9.162;2023-01-19T04:24:54;13.13;;;8.27;;
35540;SDS011;21650;48.840;9.162;2023-01-19T04:27:20;13.30;;;8.17;;
35540;SDS011;21650;48.840;9.162;2023-01-19T04:29:45;12.90;;;8.27;;
35540;SDS011;21650;48.840;9.162;2023-01-19T04:32:14;15.13;;;8.30;;
35540;SDS011;21650;48.840;9.162;2023-01-19T04:34:40;18.23;;;8.50;;
35540;SDS011;21650;48.840;9.162;2023-01-19T04:37:05;13.87;;;7.37;;
35540;SDS011;21650;48.840;9.162;2023-01-19T04:39:32;14.10;;;7.50;;
35540;SDS011;21650;48.840;9.162;2023-01-19T04:41:58;14.10;;;8.13;;
35540;SDS011;21650;48.840;9.162;2023-01-19T04:44:24;14.93;;;7.90;;
35540;SDS011;21650;48.840;9.162;2023-01-19T04:46:51;13.33;;;7.57;;
35540;SDS011;21650;48.840;9.162;2023-01-19T04:49:17;14.17;;;7.63;;
35540;SDS011;21650;48.840;9.162;2023-01-19T04:51:42;12.67;;;7.83;;
35540;SDS011;21650;48.840;9.162;2023-01-19T04:54:08;12.90;;;7.37;;
35540;SDS011;21650;48.840;9.162;2023-01-19T04:56:34;12.97;;;7.90;;
35540;SDS011;21650;48.840;9.162;2023-01-19T04:58:59;11.03;;;7.43;;
35540;SDS011;21650;48.840;9.162;2023-01-19T05:01:25;19.00;;;7.50;;
35540;SDS011;21650;48.840;9.162;2023-01-19T05:03:51;12.63;;;8.30;;
35540;SDS011;21650;48.840;9.162;2023-01-19T05:06:17;13.83;;;7.93;;
35540;SDS011;21650;48.840;9.162;2023-01-19T05:08:42;15.20;;;8.33;;
35540;SDS011;21650;48.840;9.162;2023-01-19T05:11:08;13.83;;;8.13;;
35540;SDS011;21650;48.840;9.162;2023-01-19T05:13:33;14.50;;;8.10;;
35540;SDS011;21650;48.840;9.162;2023-01-19T05:15:59;9.87;;;7.60;;
35540;SDS011;21650;48.840;9.162;2023-01-19T05:18:25;14.97;;;8.63;;
35540;SDS011;21650;48.840;9.162;2023-01-19T05:20:50;20.43;;;11.33;;
35540;SDS011;21650;48.840;9.162;2023-01-19T05:23:16;14.63;;;9.53;;
35540;SDS011;21650;48.840;9.162;2023-01-19T05:25:41;14.97;;;9.73;;
35540;SDS011;21650;48.840;9.162;2023-01-19T05:28:08;12.67;;;9.77;;
35540;SDS011;21650;48.840;9.162;2023-01-19T05:30:34;13.70;;;8.53;;
35540;SDS011;21650;48.840;9.162;2023-01-19T05:33:00;12.10;;;8.70;;
35540;SDS011;21650;48.840;9.162;2023-01-19T05:35:25;16.30;;;9.40;;
35540;SDS011;21650;48.840;9.162;2023-01-19T05:37:51;18.67;;;8.53;;
35540;SDS011;21650;48.840;9.162;2023-01-19T05:40:16;14.07;;;8.27;;
35540;SDS011;21650;48.840;9.162;2023-01-19T05:42:42;11.33;;;8.13;;
35540;SDS011;21650;48.840;9.162;2023-01-19T05:45:08;15.87;;;8.50;;
35540;SDS011;21650;48.840;9.162;2023-01-19T05:47:33;12.70;;;8.37;;
35540;SDS011;21650;48.840;9.162;2023-01-19T05:49:59;11.43;;;8.07;;
35540;SDS011;21650;48.840;9.162;2023-01-19T05:52:24;12.20;;;8.00;;
35540;SDS011;21650;48.840;9.162;2023-01-19T05:54:50;14.30;;;8.67;;
35540;SDS011;21650;48.840;9.162;2023-01-19T05:57:16;11.67;;;8.33;;
35540;SDS011;21650;48.840;9.162;2023-01-19T05:59:45;14.90;;;9.00;;
35540;SDS011;21650;48.840;9.162;2023-01-19T06:02:10;21.10;;;9.73;;
35540;SDS011;21650;48.840;9.162;2023-01-19T06:04:36;14.87;;;8.63;;
35540;SDS011;21650;48.840;9.162;2023-01-19T06:07:01;17.03;;;9.60;;
35540;SDS011;21650;48.840;9.162;2023-01-19T06:09:27;14.30;;;8.53;;
35540;SDS011;21650;48.840;9.162;2023-01-19T06:11:53;13.17;;;8.20;;
35540;SDS011;21650;48.840;9.162;2023-01-19T06:14:20;12.37;;;7.63;;
35540;SDS011;21650;48.840;9.162;2023-01-19T06:16:46;11.97;;;8.43;;
35540;SDS011;21650;48.840;9.162;2023-01-19T06:19:11;18.50;;;8.07;;
35540;SDS011;21650;48.840;9.162;2023-01-19T06:21:37;15.57;;;8.57;;
35540;SDS011;21650;48.840;9.162;2023-01-19T06:24:03;15.00;;;9.03;;
35540;SDS011;21650;48.840;9.162;2023-01-19T06:26:29;16.80;;;8.73;;
35540;SDS011;21650;48.840;9.162;2023-01-19T06:28:54;13.00;;;8.63;;
35540;SDS011;21650;48.840;9.162;2023-01-19T06:31:20;14.70;;;8.47;;
35540;SDS011;21650;48.840;9.162;2023-01-19T06:33:46;14.93;;;8.40;;
35540;SDS011;21650;48.840;9.162;2023-01-19T06:36:11;12.73;;;7.53;;
35540;SDS011;21650;48.840;9.162;2023-01-19T06:38:37;13.90;;;7.93;;
35540;SDS011;21650;48.840;9.162;2023-01-19T06:41:02;13.90;;;8.37;;
35540;SDS011;21650;48.840;9.162;2023-01-19T06:43:28;19.70;;;7.60;;
35540;SDS011;21650;48.840;9.162;2023-01-19T06:45:55;11.80;;;8.43;;
35540;SDS011;21650;48.840;9.162;2023-01-19T06:48:21;21.77;;;9.30;;
35540;SDS011;21650;48.840;9.162;2023-01-19T06:50:47;11.43;;;7.57;;
35540;SDS011;21650;48.840;9.162;2023-01-19T06:53:14;13.63;;;9.13;;
35540;SDS011;21650;48.840;9.162;2023-01-19T06:55:41;13.50;;;7.83;;
35540;SDS011;21650;48.840;9.162;2023-01-19T06:58:07;12.00;;;7.80;;
35540;SDS011;21650;48.840;9.162;2023-01-19T07:00:34;12.13;;;8.47;;
35540;SDS011;21650;48.840;9.162;2023-01-19T07:02:59;14.07;;;8.03;;
35540;SDS011;21650;48.840;9.162;2023-01-19T07:05:25;13.73;;;9.00;;
35540;SDS011;21650;48.840;9.162;2023-01-19T07:07:51;15.50;;;9.13;;
35540;SDS011;21650;48.840;9.162;2023-01-19T07:10:17;12.70;;;8.33;;
35540;SDS011;21650;48.840;9.162;2023-01-19T07:12:43;12.70;;;8.63;;
35540;SDS011;21650;48.840;9.162;2023-01-19T07:15:11;17.93;;;8.50;;
35540;SDS011;21650;48.840;9.162;2023-01-19T07:17:36;16.67;;;8.03;;
35540;SDS011;21650;48.840;9.162;2023-01-19T07:20:02;19.97;;;9.50;;
35540;SDS011;21650;48.840;9.162;2023-01-19T07:22:28;21.40;;;10.00;;
35540;SDS011;21650;48.840;9.162;2023-01-19T07:24:53;15.47;;;8.80;;
35540;SDS011;21650;48.840;9.162;2023-01-19T07:27:19;16.03;;;9.83;;
35540;SDS011;21650;48.840;9.162;2023-01-19T07:29:44;21.50;;;10.13;;
35540;SDS011;21650;48.840;9.162;2023-01-19T07:32:10;14.67;;;9.67;;
35540;SDS011;21650;48.840;9.162;2023-01-19T07:34:36;15.03;;;8.97;;
35540;SDS011;21650;48.840;9.162;2023-01-19T07:37:02;18.00;;;10.87;;
35540;SDS011;21650;48.840;9.162;2023-01-19T07:39:28;24.40;;;10.07;;
35540;SDS011;21650;48.840;9.162;2023-01-19T07:41:54;14.33;;;9.93;;
35540;SDS011;21650;48.840;9.162;2023-01-19T07:44:20;20.33;;;10.10;;
35540;SDS011;21650;48.840;9.162;2023-01-19T07:46:45;15.33;;;9.23;;
35540;SDS011;21650;48.840;9.162;2023-01-19T07:49:11;18.17;;;10.37;;
35540;SDS011;21650;48.840;9.162;2023-01-19T07:51:37;15.57;;;9.17;;
35540;SDS011;21650;48.840;9.162;2023-01-19T07:54:02;18.03;;;9.13;;
35540;SDS011;21650;48.840;9.162;2023-01-19T07:56:28;15.43;;;8.77;;
35540;SDS011;21650;48.840;9.162;2023-01-19T07:58:55;14.27;;;8.77;;
35540;SDS011;21650;48.840;9.162;2023-01-19T08:01:20;14.77;;;8.77;;
35540;SDS011;21650;48.840;9.162;2023-01-19T08:03:46;14.40;;;8.87;;
35540;SDS011;21650;48.840;9.162;2023-01-19T08:06:18;13.77;;;7.43;;
35540;SDS011;21650;48.840;9.162;2023-01-19T08:08:48;12.60;;;8.90;;
35540;SDS011;21650;48.840;9.162;2023-01-19T08:11:14;14.00;;;8.13;;
35540;SDS011;21650;48.840;9.162;2023-01-19T08:13:40;15.03;;;8.73;;
35540;SDS011;21650;48.840;9.162;2023-01-19T08:16:06;12.90;;;7.40;;
35540;SDS011;21650;48.840;9.162;2023-01-19T08:18:31;12.67;;;8.00;;
35540;SDS011;21650;48.840;9.162;2023-01-19T08:20:57;13.30;;;8.07;;
35540;SDS011;21650;48.840;9.162;2023-01-19T08:23:24;13.67;;;8.00;;
35540;SDS011;21650;48.840;9.162;2023-01-19T08:25:49;15.83;;;8.70;;
35540;SDS011;21650;48.840;9.162;2023-01-19T08:28:15;14.33;;;7.63;;
35540;SDS011;21650;48.840;9.162;2023-01-19T08:30:42;21.20;;;10.53;;
35540;SDS011;21650;48.840;9.162;2023-01-19T08:33:09;14.37;;;9.23;;
35540;SDS011;21650;48.840;9.162;2023-01-19T08:35:36;20.60;;;11.40;;
35540;SDS011;21650;48.840;9.162;2023-01-19T08:38:03;18.37;;;10.47;;
35540;SDS011;21650;48.840;9.162;2023-01-19T08:40:30;11.80;;;7.57;;
35540;SDS011;21650;48.840;9.162;2023-01-19T08:42:59;13.07;;;8.33;;
35540;SDS011;21650;48.840;9.162;2023-01-19T08:45:27;11.10;;;6.90;;
35540;SDS011;21650;48.840;9.162;2023-01-19T08:47:54;9.40;;;5.83;;
35540;SDS011;21650;48.840;9.162;2023-01-19T08:50:27;13.13;;;6.33;;
35540;SDS011;21650;48.840;9.162;2023-01-19T08:52:54;11.03;;;6.13;;
35540;SDS011;21650;48.840;9.162;2023-01-19T08:55:21;11.20;;;4.93;;
35540;SDS011;21650;48.840;9.162;2023-01-19T08:57:50;11.83;;;5.67;;
35540;SDS011;21650;48.840;9.162;2023-01-19T09:00:17;9.93;;;5.23;;
35540;SDS011;21650;48.840;9.162;2023-01-19T09:02:44;9.13;;;4.97;;
35540;SDS011;21650;48.840;9.162;2023-01-19T09:05:09;7.27;;;4.83;;
35540;SDS011;21650;48.840;9.162;2023-01-19T09:07:35;6.83;;;4.83;;
35540;SDS011;21650;48.840;9.162;2023-01-19T09:10:01;6.37;;;4.80;;
35540;SDS011;21650;48.840;9.162;2023-01-19T09:12:27;9.37;;;5.00;;
35540;SDS011;21650;48.840;9.162;2023-01-19T09:14:53;9.53;;;5.90;;
35540;SDS011;21650;48.840;9.162;2023-01-19T09:17:18;8.10;;;4.83;;
35540;SDS011;21650;48.840;9.162;2023-01-19T09:19:44;6.53;;;4.70;;
35540;SDS011;21650;48.840;9.162;2023-01-19T09:22:09;7.70;;;5.17;;
35540;SDS011;21650;48.840;9.162;2023-01-19T09:24:35;7.70;;;4.93;;
35540;SDS011;21650;48.840;9.162;2023-01-19T09:27:00;10.00;;;5.27;;
35540;SDS011;21650;48.840;9.162;2023-01-19T09:29:26;8.13;;;5.43;;
35540;SDS011;21650;48.840;9.162;2023-01-19T09:31:52;10.97;;;4.97;;
35540;SDS011;21650;48.840;9.162;2023-01-19T09:34:18;9.43;;;5.43;;
35540;SDS011;21650;48.840;9.162;2023-01-19T09:36:45;8.30;;;4.80;;
35540;SDS011;21650;48.840;9.162;2023-01-19T09:39:11;7.00;;;4.80;;
35540;SDS011;21650;48.840;9.162;2023-01-19T09:41:37;6.47;;;4.53;;
35540;SDS011;21650;48.840;9.162;2023-01-19T09:44:05;6.03;;;4.00;;
35540;SDS011;21650;48.840;9.162;2023-01-19T09:46:42;6.80;;;4.67;;
35540;SDS011;21650;48.840;9.162;2023-01-19T09:49:26;5.40;;;4.37;;
35540;SDS011;21650;48.840;9.162;2023-01-19T09:51:57;7.90;;;5.13;;
35540;SDS011;21650;48.840;9.162;2023-01-19T09:54:28;8.67;;;4.83;;
35540;SDS011;21650;48.840;9.162;2023-01-19T09:56:59;7.80;;;4.90;;
35540;SDS011;21650;48.840;9.162;2023-01-19T09:59:27;9.30;;;5.70;;
35540;SDS011;21650;48.840;9.162;2023-01-19T10:05:13;6.80;;;4.77;;
35540;SDS011;21650;48.840;9.162;2023-01-19T10:08:12;8.10;;;4.63;;
35540;SDS011;21650;48.840;9.162;2023-01-19T10:10:57;7.93;;;5.10;;
35540;SDS011;21650;48.840;9.162;2023-01-19T10:16:11;7.40;;;4.90;;
35540;SDS011;21650;48.840;9.162;2023-01-19T10:18:49;11.43;;;4.73;;
35540;SDS011;21650;48.840;9.162;2023-01-19T10:21:20;7.47;;;5.00;;
35540;SDS011;21650;48.840;9.162;2023-01-19T10:24:04;7.27;;;4.93;;
35540;SDS011;21650;48.840;9.162;2023-01-19T10:26:47;6.73;;;4.73;;
35540;SDS011;21650;48.840;9.162;2023-01-19T10:29:27;6.63;;;3.93;;
35540;SDS011;21650;48.840;9.162;2023-01-19T10:32:13;8.97;;;4.17;;
35540;SDS011;21650;48.840;9.162;2023-01-19T10:34:45;10.47;;;5.50;;
35540;SDS011;21650;48.840;9.162;2023-01-19T10:39:39;7.43;;;4.57;;
35540;SDS011;21650;48.840;9.162;2023-01-19T10:42:08;10.90;;;4.23;;
35540;SDS011;21650;48.840;9.162;2023-01-19T10:44:37;7.33;;;4.17;;
35540;SDS011;21650;48.840;9.162;2023-01-19T10:47:03;6.93;;;4.20;;
35540;SDS011;21650;48.840;9.162;2023-01-19T10:49:37;6.57;;;4.30;;
35540;SDS011;21650;48.840;9.162;2023-01-19T10:52:05;7.97;;;4.33;;
35540;SDS011;21650;48.840;9.162;2023-01-19T10:54:32;6.90;;;4.70;;
35540;SDS011;21650;48.840;9.162;2023-01-19T10:57:04;5.57;;;4.13;;
35540;SDS011;21650;48.840;9.162;2023-01-19T10:59:34;5.50;;;4.00;;
35540;SDS011;21650;48.840;9.162;2023-01-19T11:04:43;8.40;;;4.50;;
35540;SDS011;21650;48.840;9.162;2023-01-19T11:09:38;7.13;;;5.07;;
35540;SDS011;21650;48.840;9.162;2023-01-19T11:12:04;8.27;;;4.97;;
35540;SDS011;21650;48.840;9.162;2023-01-19T11:14:29;6.37;;;5.07;;
35540;SDS011;21650;48.840;9.162;2023-01-19T11:16:55;8.47;;;5.77;;
35540;SDS011;21650;48.840;9.162;2023-01-19T11:19:26;8.07;;;5.37;;
35540;SDS011;21650;48.840;9.162;2023-01-19T11:22:14;6.00;;;4.33;;
35540;SDS011;21650;48.840;9.162;2023-01-19T11:24:45;6.97;;;4.60;;
35540;SDS011;21650;48.840;9.162;2023-01-19T11:27:11;10.20;;;5.30;;
35540;SDS011;21650;48.840;9.162;2023-01-19T11:29:45;8.03;;;4.30;;
35540;SDS011;21650;48.840;9.162;2023-01-19T11:32:20;7.17;;;4.70;;
35540;SDS011;21650;48.840;9.162;2023-01-19T11:34:47;8.57;;;4.00;;
35540;SDS011;21650;48.840;9.162;2023-01-19T11:39:45;11.83;;;5.40;;
35540;SDS011;21650;48.840;9.162;2023-01-19T11:42:16;6.03;;;4.47;;
35540;SDS011;21650;48.840;9.162;2023-01-19T11:47:31;11.70;;;4.77;;
35540;SDS011;21650;48.840;9.162;2023-01-19T11:50:28;9.00;;;4.33;;
35540;SDS011;21650;48.840;9.162;2023-01-19T11:53:25;9.50;;;4.20;;
35540;SDS011;21650;48.840;9.162;2023-01-19T11:58:25;5.83;;;3.93;;
35540;SDS011;21650;48.840;9.162;2023-01-19T12:03:50;7.93;;;4.00;;
35540;SDS011;21650;48.840;9.162;2023-01-19T12:06:22;6.77;;;4.07;;
35540;SDS011;21650;48.840;9.162;2023-01-19T12:09:06;7.20;;;4.00;;
35540;SDS011;21650;48.840;9.162;2023-01-19T12:11:57;7.83;;;4.17;;
35540;SDS011;21650;48.840;9.162;2023-01-19T12:14:30;9.83;;;5.00;;
35540;SDS011;21650;48.840;9.162;2023-01-19T12:17:04;5.87;;;3.97;;
35540;SDS011;21650;48.840;9.162;2023-01-19T12:19:43;6.33;;;4.27;;
35540;SDS011;21650;48.840;9.162;2023-01-19T12:22:14;5.40;;;3.93;;
35540;SDS011;21650;48.840;9.162;2023-01-19T12:24:59;6.73;;;3.83;;
35540;SDS011;21650;48.840;9.162;2023-01-19T12:27:41;7.07;;;4.50;;
35540;SDS011;21650;48.840;9.162;2023-01-19T12:30:15;11.67;;;4.53;;
35540;SDS011;21650;48.840;9.162;2023-01-19T12:32:43;7.90;;;4.53;;
35540;SDS011;21650;48.840;9.162;2023-01-19T12:38:46;7.77;;;4.70;;
35540;SDS011;21650;48.840;9.162;2023-01-19T12:41:19;7.33;;;4.03;;
35540;SDS011;21650;48.840;9.162;2023-01-19T12:51:53;8.13;;;5.60;;
35540;SDS011;21650;48.840;9.162;2023-01-19T12:54:40;11.83;;;6.43;;
35540;SDS011;21650;48.840;9.162;2023-01-19T12:57:26;15.77;;;6.43;;
35540;SDS011;21650;48.840;9.162;2023-01-19T12:59:56;11.63;;;6.77;;
35540;SDS011;21650;48.840;9.162;2023-01-19T13:13:38;8.60;;;6.13;;
35540;SDS011;21650;48.840;9.162;2023-01-19T13:18:46;10.13;;;6.50;;
35540;SDS011;21650;48.840;9.162;2023-01-19T13:23:54;8.43;;;5.77;;
35540;SDS011;21650;48.840;9.162;2023-01-19T13:26:22;7.03;;;5.33;;
35540;SDS011;21650;48.840;9.162;2023-01-19T13:29:14;9.80;;;6.33;;
35540;SDS011;21650;48.840;9.162;2023-01-19T13:31:50;10.07;;;5.67;;
35540;SDS011;21650;48.840;9.162;2023-01-19T13:34:19;10.03;;;5.60;;
35540;SDS011;21650;48.840;9.162;2023-01-19T13:36:50;10.13;;;5.20;;
35540;SDS011;21650;48.840;9.162;2023-01-19T13:41:53;6.70;;;4.87;;
35540;SDS011;21650;48.840;9.162;2023-01-19T13:44:28;8.10;;;5.00;;
35540;SDS011;21650;48.840;9.162;2023-01-19T13:47:01;7.47;;;5.23;;
35540;SDS011;21650;48.840;9.162;2023-01-19T13:49:29;10.47;;;5.50;;
35540;SDS011;21650;48.840;9.162;2023-01-19T13:54:47;11.67;;;5.70;;
35540;SDS011;21650;48.840;9.162;2023-01-19T13:57:32;5.00;;;4.33;;
35540;SDS011;21650;48.840;9.162;2023-01-19T14:02:40;7.77;;;5.23;;
35540;SDS011;21650;48.840;9.162;2023-01-19T14:07:58;6.47;;;5.00;;
35540;SDS011;21650;48.840;9.162;2023-01-19T14:10:28;6.83;;;4.97;;
35540;SDS011;21650;48.840;9.162;2023-01-19T14:12:59;9.63;;;4.70;;
35540;SDS011;21650;48.840;9.162;2023-01-19T14:15:37;8.17;;;5.20;;
35540;SDS011;21650;48.840;9.162;2023-01-19T14:18:08;7.57;;;4.57;;
35540;SDS011;21650;48.840;9.162;2023-01-19T14:20:34;7.00;;;4.90;;
35540;SDS011;21650;48.840;9.162;2023-01-19T14:23:03;6.50;;;4.87;;
35540;SDS011;21650;48.840;9.162;2023-01-19T14:25:34;6.00;;;4.57;;
35540;SDS011;21650;48.840;9.162;2023-01-19T14:30:52;8.87;;;5.97;;
35540;SDS011;21650;48.840;9.162;2023-01-19T14:38:41;12.33;;;5.60;;
35540;SDS011;21650;48.840;9.162;2023-01-19T14:41:09;10.53;;;5.43;;
35540;SDS011;21650;48.840;9.162;2023-01-19T14:43:35;10.30;;;7.63;;
35540;SDS011;21650;48.840;9.162;2023-01-19T14:46:00;7.10;;;5.13;;
35540;SDS011;21650;48.840;9.162;2023-01-19T14:48:26;8.73;;;4.87;;
35540;SDS011;21650;48.840;9.162;2023-01-19T14:51:01;9.10;;;5.53;;
35540;SDS011;21650;48.840;9.162;2023-01-19T14:53:28;51.27;;;23.80;;
35540;SDS011;21650;48.840;9.162;2023-01-19T14:56:01;85.97;;;39.17;;
35540;SDS011;21650;48.840;9.162;2023-01-19T14:58:29;43.43;;;19.53;;
35540;SDS011;21650;48.840;9.162;2023-01-19T15:00:56;55.40;;;27.37;;
35540;SDS011;21650;48.840;9.162;2023-01-19T15:03:22;28.77;;;14.87;;
35540;SDS011;21650;48.840;9.162;2023-01-19T15:05:49;15.40;;;8.03;;
35540;SDS011;21650;48.840;9.162;2023-01-19T15:08:18;16.30;;;8.67;;
35540;SDS011;21650;48.840;9.162;2023-01-19T15:10:48;12.07;;;7.53;;
35540;SDS011;21650;48.840;9.162;2023-01-19T15:13:17;7.77;;;5.60;;
35540;SDS011;21650;48.840;9.162;2023-01-19T15:15:44;8.80;;;5.90;;
35540;SDS011;21650;48.840;9.162;2023-01-19T15:18:12;11.20;;;6.17;;
35540;SDS011;21650;48.840;9.162;2023-01-19T15:20:51;9.63;;;5.93;;
35540;SDS011;21650;48.840;9.162;2023-01-19T15:23:17;10.97;;;6.07;;
35540;SDS011;21650;48.840;9.162;2023-01-19T15:25:42;6.60;;;5.20;;
35540;SDS011;21650;48.840;9.162;2023-01-19T15:28:09;11.70;;;7.70;;
35540;SDS011;21650;48.840;9.162;2023-01-19T15:30:35;9.50;;;6.67;;
35540;SDS011;21650;48.840;9.162;2023-01-19T15:33:02;9.37;;;5.90;;
35540;SDS011;21650;48.840;9.162;2023-01-19T15:35:28;11.87;;;6.77;;
35540;SDS011;21650;48.840;9.162;2023-01-19T15:37:54;12.47;;;6.43;;
35540;SDS011;21650;48.840;9.162;2023-01-19T15:40:19;6.50;;;5.67;;
35540;SDS011;21650;48.840;9.162;2023-01-19T15:42:47;10.03;;;6.90;;
35540;SDS011;21650;48.840;9.162;2023-01-19T15:45:30;7.93;;;5.73;;
35540;SDS011;21650;48.840;9.162;2023-01-19T15:48:02;9.80;;;5.67;;
35540;SDS011;21650;48.840;9.162;2023-01-19T15:50:29;10.93;;;5.70;;
35540;SDS011;21650;48.840;9.162;2023-01-19T15:52:55;8.93;;;5.57;;
35540;SDS011;21650;48.840;9.162;2023-01-19T15:55:21;9.80;;;6.10;;
35540;SDS011;21650;48.840;9.162;2023-01-19T15:57:47;9.07;;;5.87;;
35540;SDS011;21650;48.840;9.162;2023-01-19T16:00:13;10.67;;;6.57;;
35540;SDS011;21650;48.840;9.162;2023-01-19T16:02:39;10.17;;;5.87;;
35540;SDS011;21650;48.840;9.162;2023-01-19T16:05:05;11.30;;;5.87;;
35540;SDS011;21650;48.840;9.162;2023-01-19T16:07:31;9.33;;;5.57;;
35540;SDS011;21650;48.840;9.162;2023-01-19T16:09:58;10.10;;;5.73;;
35540;SDS011;21650;48.840;9.162;2023-01-19T16:12:24;9.83;;;4.93;;
35540;SDS011;21650;48.840;9.162;2023-01-19T16:14:49;11.60;;;6.40;;
35540;SDS011;21650;48.840;9.162;2023-01-19T16:17:15;9.17;;;6.60;;